createdAt,value
2023-10-19T00:00:34.989Z,100521.00
2023-10-19T00:03:04.850Z,100531.00
2023-10-19T00:05:36.780Z,100527.00
2023-10-19T00:08:16.088Z,100528.00
2023-10-19T00:10:49.375Z,100523.00
2023-10-19T00:13:26.344Z,100530.00
2023-10-19T00:15:59.771Z,100532.00
2023-10-19T00:18:37.065Z,100536.00
2023-10-19T00:21:12.762Z,100533.00
2023-10-19T00:24:00.049Z,100546.00
2023-10-19T00:26:32.088Z,100540.00
2023-10-19T00:29:15.770Z,100526.00
2023-10-19T00:31:45.816Z,100541.00
2023-10-19T00:34:25.128Z,100540.00
2023-10-19T00:36:57.849Z,100548.00
2023-10-19T00:39:30.913Z,100541.00
2023-10-19T00:42:04.917Z,100538.00
2023-10-19T00:44:43.615Z,100545.00
2023-10-19T00:47:15.247Z,100539.00
2023-10-19T00:49:45.479Z,100535.00
2023-10-19T00:52:25.081Z,100532.00
2023-10-19T00:55:02.649Z,100543.00
2023-10-19T00:57:38.562Z,100540.00
2023-10-19T01:00:13.964Z,100536.00
2023-10-19T01:03:01.547Z,100534.00
2023-10-19T01:05:39.475Z,100541.00
2023-10-19T01:08:25.244Z,100535.00
2023-10-19T01:10:56.368Z,100534.00
2023-10-19T01:13:35.720Z,100543.00
2023-10-19T01:16:17.438Z,100540.00
2023-10-19T01:18:47.292Z,100547.00
2023-10-19T01:21:20.082Z,100544.00
2023-10-19T01:23:56.598Z,100553.00
2023-10-19T01:26:27.875Z,100547.00
2023-10-19T01:29:04.048Z,100558.00
2023-10-19T01:31:40.077Z,100549.00
2023-10-19T01:34:10.937Z,100542.00
2023-10-19T01:36:43.698Z,100548.00
2023-10-19T01:39:23.445Z,100546.00
2023-10-19T01:41:56.197Z,100553.00
2023-10-19T01:44:29.010Z,100543.00
2023-10-19T01:47:03.657Z,100543.00
2023-10-19T01:49:31.588Z,100548.00
2023-10-19T01:52:17.824Z,100545.00
2023-10-19T01:54:57.275Z,100539.00
2023-10-19T01:57:54.759Z,100541.00
2023-10-19T02:00:26.491Z,100546.00
2023-10-19T02:03:29.175Z,100548.00
2023-10-19T02:06:04.469Z,100539.00
2023-10-19T02:08:39.682Z,100540.00
2023-10-19T02:11:21.004Z,100541.00
2023-10-19T02:13:55.069Z,100541.00
2023-10-19T02:16:26.694Z,100550.00
2023-10-19T02:18:54.947Z,100546.00
2023-10-19T02:21:44.329Z,100551.00
2023-10-19T02:24:15.600Z,100545.00
2023-10-19T02:26:48.287Z,100543.00
2023-10-19T02:29:18.781Z,100548.00
2023-10-19T02:31:57.238Z,100551.00
2023-10-19T02:34:36.061Z,100554.00
2023-10-19T02:37:06.354Z,100544.00
2023-10-19T02:39:47.486Z,100550.00
2023-10-19T02:42:23.457Z,100547.00
2023-10-19T02:45:03.135Z,100559.00
2023-10-19T02:47:57.911Z,100552.00
2023-10-19T02:50:27.830Z,100553.00
2023-10-19T02:52:57.601Z,100562.00
2023-10-19T02:55:36.531Z,100571.00
2023-10-19T02:58:21.253Z,100554.00
2023-10-19T03:01:01.594Z,100554.00
2023-10-19T03:03:35.178Z,100565.00
2023-10-19T03:06:07.858Z,100569.00
2023-10-19T03:08:43.951Z,100569.00
2023-10-19T03:14:00.008Z,100561.00
2023-10-19T03:16:32.325Z,100558.00
2023-10-19T03:19:05.634Z,100567.00
2023-10-19T03:21:44.729Z,100564.00
2023-10-19T03:24:37.231Z,100562.00
2023-10-19T03:27:14.142Z,100568.00
2023-10-19T03:29:49.184Z,100572.00
2023-10-19T03:32:35.815Z,100566.00
2023-10-19T03:35:19.036Z,100564.00
2023-10-19T03:37:53.163Z,100572.00
2023-10-19T03:40:31.120Z,100563.00
2023-10-19T03:43:25.818Z,100570.00
2023-10-19T03:49:12.531Z,100573.00
2023-10-19T03:52:00.537Z,100577.00
2023-10-19T03:54:34.283Z,100579.00
2023-10-19T03:57:12.881Z,100579.00
2023-10-19T03:59:42.564Z,100582.00
2023-10-19T04:02:15.062Z,100590.00
2023-10-19T04:04:45.760Z,100594.00
2023-10-19T04:07:25.531Z,100599.00
2023-10-19T04:10:11.573Z,100590.00
2023-10-19T04:12:44.118Z,100590.00
2023-10-19T04:15:17.073Z,100598.00
2023-10-19T04:17:54.356Z,100595.00
2023-10-19T04:20:37.257Z,100598.00
2023-10-19T04:23:12.206Z,100598.00
2023-10-19T04:25:42.149Z,100593.00
2023-10-19T04:28:11.773Z,100596.00
2023-10-19T04:30:40.522Z,100607.00
2023-10-19T04:33:11.607Z,100605.00
2023-10-19T04:35:42.630Z,100599.00
2023-10-19T04:38:12.304Z,100610.00
2023-10-19T04:40:41.304Z,100606.00
2023-10-19T04:43:10.124Z,100604.00
2023-10-19T04:45:42.726Z,100609.00
2023-10-19T04:48:13.282Z,100611.00
2023-10-19T04:50:43.188Z,100620.00
2023-10-19T04:53:16.940Z,100623.00
2023-10-19T04:55:49.813Z,100627.00
2023-10-19T04:58:19.973Z,100616.00
2023-10-19T05:00:51.833Z,100627.00
2023-10-19T05:03:34.838Z,100630.00
2023-10-19T05:06:03.940Z,100622.00
2023-10-19T05:08:34.191Z,100622.00
2023-10-19T05:11:03.829Z,100622.00
2023-10-19T05:13:35.145Z,100629.00
2023-10-19T05:16:04.275Z,100629.00
2023-10-19T05:18:35.345Z,100634.00
2023-10-19T05:21:06.988Z,100632.00
2023-10-19T05:23:37.763Z,100633.00
2023-10-19T05:26:08.040Z,100634.00
2023-10-19T05:28:37.078Z,100635.00
2023-10-19T05:31:06.526Z,100640.00
2023-10-19T05:33:36.644Z,100643.00
2023-10-19T05:36:06.372Z,100646.00
2023-10-19T05:38:35.740Z,100648.00
2023-10-19T05:41:05.066Z,100649.00
2023-10-19T05:43:36.106Z,100651.00
2023-10-19T05:46:05.851Z,100658.00
2023-10-19T05:48:36.128Z,100663.00
2023-10-19T05:51:06.566Z,100667.00
2023-10-19T05:53:35.337Z,100664.00
2023-10-19T05:56:04.125Z,100672.00
2023-10-19T05:58:32.925Z,100665.00
2023-10-19T06:01:02.038Z,100665.00
2023-10-19T06:03:30.991Z,100673.00
2023-10-19T06:06:01.694Z,100674.00
2023-10-19T06:08:32.501Z,100676.00
2023-10-19T06:11:02.149Z,100670.00
2023-10-19T06:13:31.638Z,100682.00
2023-10-19T06:16:00.517Z,100678.00
2023-10-19T06:18:30.623Z,100682.00
2023-10-19T06:21:00.907Z,100678.00
2023-10-19T06:23:29.625Z,100689.00
2023-10-19T06:25:58.477Z,100691.00
2023-10-19T06:28:27.706Z,100695.00
2023-10-19T06:30:56.575Z,100694.00
2023-10-19T06:33:25.423Z,100698.00
2023-10-19T06:35:54.211Z,100702.00
2023-10-19T06:38:24.359Z,100700.00
2023-10-19T06:40:53.499Z,100711.00
2023-10-19T06:43:24.953Z,100708.00
2023-10-19T06:45:53.972Z,100715.00
2023-10-19T06:48:22.834Z,100721.00
2023-10-19T06:50:52.875Z,100717.00
2023-10-19T06:53:23.553Z,100719.00
2023-10-19T06:55:52.473Z,100718.00
2023-10-19T06:58:21.672Z,100722.00
2023-10-19T07:00:57.858Z,100719.00
2023-10-19T07:03:29.482Z,100725.00
2023-10-19T07:05:59.551Z,100720.00
2023-10-19T07:08:30.169Z,100729.00
2023-10-19T07:10:58.962Z,100725.00
2023-10-19T07:13:28.701Z,100736.00
2023-10-19T07:15:57.731Z,100732.00
2023-10-19T07:18:26.577Z,100726.00
2023-10-19T07:21:01.838Z,100724.00
2023-10-19T07:23:32.749Z,100727.00
2023-10-19T07:26:02.120Z,100730.00
2023-10-19T07:28:32.706Z,100730.00
2023-10-19T07:31:01.966Z,100729.00
2023-10-19T07:33:31.862Z,100727.00
2023-10-19T07:36:02.283Z,100725.00
2023-10-19T07:38:36.085Z,100735.00
2023-10-19T07:41:07.094Z,100741.00
2023-10-19T07:43:35.963Z,100740.00
2023-10-19T07:46:04.877Z,100741.00
2023-10-19T07:48:33.845Z,100739.00
2023-10-19T07:51:02.791Z,100740.00
2023-10-19T07:53:33.179Z,100743.00
2023-10-19T07:56:01.984Z,100742.00
2023-10-19T07:58:31.785Z,100754.00
2023-10-19T08:01:00.557Z,100750.00
2023-10-19T08:03:29.375Z,100747.00
2023-10-19T08:05:58.164Z,100757.00
2023-10-19T08:08:35.248Z,100752.00
2023-10-19T08:11:06.682Z,100757.00
2023-10-19T08:13:35.674Z,100759.00
2023-10-19T08:16:04.863Z,100758.00
2023-10-19T08:18:33.736Z,100770.00
2023-10-19T08:21:02.726Z,100770.00
2023-10-19T08:23:32.836Z,100757.00
2023-10-19T08:26:02.076Z,100765.00
2023-10-19T08:28:33.617Z,100767.00
2023-10-19T08:31:06.345Z,100766.00
2023-10-19T08:33:40.036Z,100769.00
2023-10-19T08:36:18.392Z,100775.00
2023-10-19T08:38:47.108Z,100771.00
2023-10-19T08:41:16.909Z,100769.00
2023-10-19T08:43:47.307Z,100772.00
2023-10-19T08:46:16.342Z,100765.00
2023-10-19T08:48:45.886Z,100778.00
2023-10-19T08:51:17.750Z,100781.00
2023-10-19T08:53:47.817Z,100780.00
2023-10-19T08:56:18.981Z,100779.00
2023-10-19T08:58:49.232Z,100791.00
2023-10-19T09:01:21.106Z,100781.00
2023-10-19T09:03:50.790Z,100793.00
2023-10-19T09:06:19.855Z,100786.00
2023-10-19T09:08:50.452Z,100790.00
2023-10-19T09:11:21.707Z,100789.00
2023-10-19T09:13:54.092Z,100788.00
2023-10-19T09:16:24.922Z,100791.00
2023-10-19T09:18:53.956Z,100783.00
2023-10-19T09:21:26.418Z,100788.00
2023-10-19T09:23:58.655Z,100787.00
2023-10-19T09:26:28.124Z,100795.00
2023-10-19T09:28:58.357Z,100801.00
2023-10-19T09:31:28.457Z,100802.00
2023-10-19T09:33:59.161Z,100801.00
2023-10-19T09:36:31.214Z,100792.00
2023-10-19T09:39:01.826Z,100800.00
2023-10-19T09:41:33.053Z,100806.00
2023-10-19T09:44:12.095Z,100797.00
2023-10-19T09:46:43.328Z,100808.00
2023-10-19T09:49:14.718Z,100807.00
2023-10-19T09:51:55.631Z,100799.00
2023-10-19T09:54:52.765Z,100805.00
2023-10-19T09:57:33.465Z,100809.00
2023-10-19T10:00:13.231Z,100810.00
2023-10-19T10:02:47.219Z,100805.00
2023-10-19T10:05:49.957Z,100812.00
2023-10-19T10:08:38.607Z,100800.00
2023-10-19T10:11:21.314Z,100806.00
2023-10-19T10:13:54.544Z,100814.00
2023-10-19T10:16:31.141Z,100797.00
2023-10-19T10:19:02.214Z,100808.00
2023-10-19T10:21:32.312Z,100813.00
2023-10-19T10:24:04.287Z,100800.00
2023-10-19T10:27:00.105Z,100819.00
2023-10-19T10:29:32.260Z,100818.00
2023-10-19T10:32:02.819Z,100813.00
2023-10-19T10:34:50.362Z,100827.00
2023-10-19T10:37:22.127Z,100821.00
2023-10-19T10:39:51.998Z,100828.00
2023-10-19T10:42:21.295Z,100827.00
2023-10-19T10:44:57.344Z,100828.00
2023-10-19T10:47:31.095Z,100837.00
2023-10-19T10:50:02.915Z,100821.00
2023-10-19T10:52:38.749Z,100832.00
2023-10-19T10:55:12.432Z,100831.00
2023-10-19T10:57:42.837Z,100847.00
2023-10-19T11:00:16.703Z,100838.00
2023-10-19T11:02:50.695Z,100847.00
2023-10-19T11:05:25.565Z,100844.00
2023-10-19T11:08:10.670Z,100843.00
2023-10-19T11:10:43.588Z,100844.00
2023-10-19T11:13:15.551Z,100853.00
2023-10-19T11:15:52.747Z,100847.00
2023-10-19T11:18:36.712Z,100839.00
2023-10-19T11:21:11.018Z,100846.00
2023-10-19T11:23:46.834Z,100850.00
2023-10-19T11:26:25.646Z,100843.00
2023-10-19T11:29:00.355Z,100849.00
2023-10-19T11:31:38.673Z,100845.00
2023-10-19T11:34:10.111Z,100844.00
2023-10-19T11:36:39.859Z,100850.00
2023-10-19T11:39:13.302Z,100854.00
2023-10-19T11:41:42.249Z,100850.00
2023-10-19T11:44:11.107Z,100849.00
2023-10-19T11:46:39.861Z,100850.00
2023-10-19T11:49:10.519Z,100846.00
2023-10-19T11:51:39.236Z,100848.00
2023-10-19T11:54:08.115Z,100844.00
2023-10-19T11:56:36.902Z,100843.00
2023-10-19T11:59:05.678Z,100845.00
2023-10-19T12:01:34.538Z,100844.00
2023-10-19T12:04:04.113Z,100845.00
2023-10-19T12:06:34.897Z,100847.00
2023-10-19T12:09:15.892Z,100845.00
2023-10-19T12:11:47.849Z,100837.00
2023-10-19T12:14:17.656Z,100844.00
2023-10-19T12:16:47.167Z,100847.00
2023-10-19T12:19:18.591Z,100846.00
2023-10-19T12:21:50.912Z,100838.00
2023-10-19T12:24:21.656Z,100835.00
2023-10-19T12:26:50.432Z,100843.00
2023-10-19T12:29:23.955Z,100846.00
2023-10-19T12:31:52.751Z,100839.00
2023-10-19T12:34:20.482Z,100844.00
2023-10-19T12:36:52.359Z,100843.00
2023-10-19T12:39:34.936Z,100839.00
2023-10-19T12:42:04.705Z,100852.00
2023-10-19T12:44:40.311Z,100855.00
2023-10-19T12:47:14.099Z,100862.00
2023-10-19T12:49:46.409Z,100856.00
2023-10-19T12:52:16.718Z,100847.00
2023-10-19T12:54:49.345Z,100866.00
2023-10-19T12:57:18.137Z,100865.00
2023-10-19T12:59:47.274Z,100868.00
2023-10-19T13:02:16.542Z,100868.00
2023-10-19T13:04:49.760Z,100872.00
2023-10-19T13:07:21.027Z,100861.00
2023-10-19T13:09:50.394Z,100866.00
2023-10-19T13:12:24.581Z,100871.00
2023-10-19T13:14:53.651Z,100875.00
2023-10-19T13:17:22.422Z,100863.00
2023-10-19T13:19:52.729Z,100865.00
2023-10-19T13:22:22.919Z,100867.00
2023-10-19T13:24:51.586Z,100862.00
2023-10-19T13:27:20.556Z,100868.00
2023-10-19T13:29:49.189Z,100863.00
2023-10-19T13:32:18.497Z,100884.00
2023-10-19T13:34:48.285Z,100879.00
2023-10-19T13:37:17.138Z,100879.00
2023-10-19T13:39:47.256Z,100884.00
2023-10-19T13:42:15.935Z,100886.00
2023-10-19T13:45:03.368Z,100891.00
2023-10-19T13:47:34.933Z,100885.00
2023-10-19T13:50:04.369Z,100888.00
2023-10-19T13:52:33.334Z,100880.00
2023-10-19T13:55:04.634Z,100892.00
2023-10-19T13:57:33.438Z,100895.00
2023-10-19T14:00:02.387Z,100894.00
2023-10-19T14:02:34.445Z,100900.00
2023-10-19T14:05:03.719Z,100894.00
2023-10-19T14:07:33.851Z,100890.00
2023-10-19T14:10:05.633Z,100902.00
2023-10-19T14:12:34.557Z,100914.00
2023-10-19T14:15:04.560Z,100909.00
2023-10-19T14:17:33.983Z,100912.00
2023-10-19T14:20:02.804Z,100912.00
2023-10-19T14:22:35.644Z,100918.00
2023-10-19T14:25:08.567Z,100918.00
2023-10-19T14:27:37.203Z,100925.00
2023-10-19T14:30:07.746Z,100937.00
2023-10-19T14:32:36.785Z,100920.00
2023-10-19T14:35:07.345Z,100939.00
2023-10-19T14:37:36.032Z,100941.00
2023-10-19T14:40:10.915Z,100944.00
2023-10-19T14:42:41.421Z,100947.00
2023-10-19T14:45:14.897Z,100946.00
2023-10-19T14:47:44.318Z,100943.00
2023-10-19T14:50:15.200Z,100957.00
2023-10-19T14:52:44.895Z,100951.00
2023-10-19T14:55:19.870Z,100955.00
2023-10-19T14:57:56.017Z,100955.00
2023-10-19T15:00:35.114Z,100965.00
2023-10-19T15:03:09.093Z,100959.00
2023-10-19T15:05:39.792Z,100966.00
2023-10-19T15:08:10.806Z,100971.00
2023-10-19T15:10:44.715Z,100959.00
2023-10-19T15:13:13.680Z,100971.00
2023-10-19T15:15:42.460Z,100967.00
2023-10-19T15:18:11.275Z,100976.00
2023-10-19T15:20:40.030Z,100977.00
2023-10-19T15:23:09.213Z,100969.00
2023-10-19T15:25:41.368Z,100978.00
2023-10-19T15:28:12.417Z,100980.00
2023-10-19T15:30:45.131Z,100982.00
2023-10-19T15:33:15.993Z,100985.00
2023-10-19T15:35:49.977Z,100979.00
2023-10-19T15:38:18.706Z,100985.00
2023-10-19T15:40:47.447Z,100982.00
2023-10-19T15:43:18.248Z,100987.00
2023-10-19T15:45:50.740Z,100989.00
2023-10-19T15:48:20.518Z,100987.00
2023-10-19T15:50:49.253Z,100995.00
2023-10-19T15:53:18.497Z,100985.00
2023-10-19T15:55:48.284Z,100993.00
2023-10-19T15:58:21.499Z,100996.00
2023-10-19T16:00:50.614Z,100986.00
2023-10-19T16:03:22.148Z,100993.00
2023-10-19T16:05:51.254Z,101001.00
2023-10-19T16:08:20.008Z,100998.00
2023-10-19T16:10:55.153Z,101004.00
2023-10-19T16:13:25.401Z,100993.00
2023-10-19T16:15:54.470Z,100996.00
2023-10-19T16:18:23.412Z,100999.00
2023-10-19T16:20:52.350Z,101000.00
2023-10-19T16:23:21.224Z,100996.00
2023-10-19T16:25:50.099Z,101004.00
2023-10-19T16:28:25.966Z,101005.00
2023-10-19T16:30:56.639Z,101010.00
2023-10-19T16:33:25.389Z,101009.00
2023-10-19T16:35:56.081Z,101022.00
2023-10-19T16:38:25.186Z,101001.00
2023-10-19T16:41:02.083Z,101015.00
2023-10-19T16:43:30.865Z,101022.00
2023-10-19T16:46:02.470Z,101026.00
2023-10-19T16:48:31.565Z,101022.00
2023-10-19T16:51:03.858Z,101022.00
2023-10-19T16:53:33.759Z,101021.00
2023-10-19T16:56:03.199Z,101031.00
2023-10-19T16:58:32.406Z,101030.00
2023-10-19T17:01:06.814Z,101039.00
2023-10-19T17:03:36.851Z,101039.00
2023-10-19T17:06:06.388Z,101036.00
2023-10-19T17:08:37.956Z,101045.00
2023-10-19T17:11:15.498Z,101051.00
2023-10-19T17:13:44.711Z,101048.00
2023-10-19T17:16:33.166Z,101056.00
2023-10-19T17:19:02.052Z,101057.00
2023-10-19T17:21:33.207Z,101050.00
2023-10-19T17:24:18.676Z,101059.00
2023-10-19T17:26:56.241Z,101057.00
2023-10-19T17:29:40.344Z,101046.00
2023-10-19T17:32:10.916Z,101052.00
2023-10-19T17:34:39.637Z,101064.00
2023-10-19T17:37:10.640Z,101057.00
2023-10-19T17:39:44.498Z,101054.00
2023-10-19T17:42:14.319Z,101063.00
2023-10-19T17:44:42.981Z,101063.00
2023-10-19T17:47:13.712Z,101067.00
2023-10-19T17:49:43.000Z,101076.00
2023-10-19T17:52:11.910Z,101077.00
2023-10-19T17:54:40.627Z,101071.00
2023-10-19T17:57:28.921Z,101081.00
2023-10-19T17:59:57.777Z,101084.00
2023-10-19T18:02:28.617Z,101079.00
2023-10-19T18:05:04.934Z,101084.00
2023-10-19T18:07:34.064Z,101094.00
2023-10-19T18:10:03.288Z,101093.00
2023-10-19T18:12:36.587Z,101092.00
2023-10-19T18:15:18.087Z,101092.00
2023-10-19T18:17:48.233Z,101093.00
2023-10-19T18:20:17.382Z,101094.00
2023-10-19T18:22:46.218Z,101100.00
2023-10-19T18:25:17.092Z,101108.00
2023-10-19T18:27:45.795Z,101109.00
2023-10-19T18:30:16.370Z,101116.00
2023-10-19T18:32:45.204Z,101104.00
2023-10-19T18:35:15.615Z,101110.00
2023-10-19T18:37:44.468Z,101112.00
2023-10-19T18:40:14.832Z,101120.00
2023-10-19T18:42:43.686Z,101122.00
2023-10-19T18:45:12.643Z,101099.00
2023-10-19T18:47:42.478Z,101123.00
2023-10-19T18:50:29.894Z,101130.00
2023-10-19T18:53:04.766Z,101130.00
2023-10-19T18:55:33.850Z,101134.00
2023-10-19T18:58:04.093Z,101137.00
2023-10-19T19:00:34.186Z,101137.00
2023-10-19T19:03:03.272Z,101138.00
2023-10-19T19:05:32.366Z,101135.00
2023-10-19T19:08:02.697Z,101138.00
2023-10-19T19:10:34.487Z,101134.00
2023-10-19T19:13:03.915Z,101156.00
2023-10-19T19:15:34.378Z,101141.00
2023-10-19T19:18:03.863Z,101154.00
2023-10-19T19:20:33.571Z,101148.00
2023-10-19T19:23:06.675Z,101151.00
2023-10-19T19:25:35.546Z,101147.00
2023-10-19T19:28:04.428Z,101159.00
2023-10-19T19:30:34.585Z,101161.00
2023-10-19T19:33:03.399Z,101164.00
2023-10-19T19:35:32.117Z,101156.00
2023-10-19T19:38:01.008Z,101164.00
2023-10-19T19:40:31.648Z,101167.00
2023-10-19T19:43:00.927Z,101178.00
2023-10-19T19:45:38.734Z,101181.00
2023-10-19T19:48:16.009Z,101172.00
2023-10-19T19:50:44.820Z,101190.00
2023-10-19T19:53:16.197Z,101187.00
2023-10-19T19:55:47.897Z,101181.00
2023-10-19T19:58:17.707Z,101180.00
2023-10-19T20:00:46.430Z,101188.00
2023-10-19T20:03:15.487Z,101179.00
2023-10-19T20:05:44.389Z,101185.00
2023-10-19T20:08:14.265Z,101195.00
2023-10-19T20:10:48.303Z,101183.00
2023-10-19T20:13:17.428Z,101201.00
2023-10-19T20:15:46.854Z,101196.00
2023-10-19T20:18:16.674Z,101202.00
2023-10-19T20:20:46.097Z,101185.00
2023-10-19T20:23:15.670Z,101200.00
2023-10-19T20:25:44.430Z,101206.00
2023-10-19T20:28:14.975Z,101202.00
2023-10-19T20:30:43.855Z,101200.00
2023-10-19T20:33:13.462Z,101203.00
2023-10-19T20:35:45.533Z,101208.00
2023-10-19T20:38:22.895Z,101205.00
2023-10-19T20:40:55.836Z,101218.00
2023-10-19T20:43:44.330Z,101209.00
2023-10-19T20:46:13.078Z,101212.00
2023-10-19T20:48:42.677Z,101209.00
2023-10-19T20:51:18.963Z,101208.00
2023-10-19T20:53:47.756Z,101212.00
2023-10-19T20:56:16.703Z,101203.00
2023-10-19T20:58:47.317Z,101208.00
2023-10-19T21:01:18.582Z,101217.00
2023-10-19T21:03:48.926Z,101216.00
2023-10-19T21:06:19.683Z,101229.00
2023-10-19T21:08:48.485Z,101224.00
2023-10-19T21:11:18.827Z,101226.00
2023-10-19T21:13:50.930Z,101226.00
2023-10-19T21:16:22.704Z,101217.00
2023-10-19T21:18:56.709Z,101227.00
2023-10-19T21:21:37.149Z,101232.00
2023-10-19T21:24:15.414Z,101233.00
2023-10-19T21:27:12.321Z,101232.00
2023-10-19T21:29:42.478Z,101241.00
2023-10-19T21:32:11.288Z,101236.00
2023-10-19T21:34:40.321Z,101234.00
2023-10-19T21:39:54.512Z,101229.00
2023-10-19T21:42:23.273Z,101238.00
2023-10-19T21:44:53.619Z,101239.00
2023-10-19T21:47:24.222Z,101237.00
2023-10-19T21:49:54.656Z,101227.00
2023-10-19T21:52:25.154Z,101235.00
2023-10-19T21:54:55.283Z,101235.00
2023-10-19T21:57:24.345Z,101238.00
2023-10-19T21:59:54.420Z,101243.00
2023-10-19T22:02:23.386Z,101231.00
2023-10-19T22:04:52.276Z,101234.00
2023-10-19T22:07:22.275Z,101244.00
2023-10-19T22:09:51.293Z,101235.00
2023-10-19T22:12:21.204Z,101239.00
2023-10-19T22:14:50.713Z,101229.00
2023-10-19T22:17:20.940Z,101238.00
2023-10-19T22:19:49.605Z,101230.00
2023-10-19T22:22:18.521Z,101236.00
2023-10-19T22:24:47.258Z,101241.00
2023-10-19T22:27:16.212Z,101230.00
2023-10-19T22:29:45.183Z,101243.00
2023-10-19T22:32:15.008Z,101238.00
2023-10-19T22:34:45.161Z,101250.00
2023-10-19T22:37:13.849Z,101240.00
2023-10-19T22:39:43.485Z,101244.00
2023-10-19T22:42:12.571Z,101243.00
2023-10-19T22:44:41.279Z,101245.00
2023-10-19T22:47:10.325Z,101248.00
2023-10-19T22:49:39.647Z,101243.00
2023-10-19T22:52:12.983Z,101242.00
2023-10-19T22:54:44.404Z,101251.00
2023-10-19T22:57:14.621Z,101250.00
2023-10-19T22:59:56.549Z,101242.00
2023-10-19T23:02:36.438Z,101242.00
2023-10-19T23:05:17.083Z,101257.00
2023-10-19T23:07:53.589Z,101244.00
2023-10-19T23:10:29.445Z,101247.00
2023-10-19T23:12:59.210Z,101244.00
2023-10-19T23:15:38.009Z,101245.00
2023-10-19T23:18:12.632Z,101246.00
2023-10-19T23:20:43.364Z,101250.00
2023-10-19T23:23:14.141Z,101251.00
2023-10-19T23:25:52.912Z,101252.00
2023-10-19T23:28:22.961Z,101247.00
2023-10-19T23:30:52.062Z,101253.00
2023-10-19T23:33:20.785Z,101258.00
2023-10-19T23:35:50.709Z,101255.00
2023-10-19T23:38:20.826Z,101246.00
2023-10-19T23:40:51.557Z,101248.00
2023-10-19T23:43:20.656Z,101263.00
2023-10-19T23:45:51.237Z,101253.00
2023-10-19T23:48:21.579Z,101255.00
2023-10-19T23:50:51.962Z,101256.00
2023-10-19T23:53:25.662Z,101257.00
2023-10-19T23:55:54.946Z,101245.00
2023-10-19T23:58:23.702Z,101260.00
